Time,TemperatureF,DewpointF,PressureIn,WindDirection,WindDirectionDegrees,WindSpeedMPH,WindSpeedGustMPH,Humidity,HourlyPrecipIn,Conditions,Clouds,dailyrainin,SolarRadiationWatts/m^2,SoftwareType,DateUTC
2013-10-15 00:02:00,35.0,23.0,-100.00,WNW,293,4.0,9.0,60,0.00,,,0.00,0.000000,,2013-10-15 06:02:00,
2013-10-15 00:43:00,32.0,23.0,-100.00,SW,234,2.0,7.0,69,0.00,,,-99.99,0.000000,,2013-10-15 06:43:00,
2013-10-15 00:52:00,32.0,23.0,-100.00,SW,234,2.0,7.0,69,0.00,,,-99.99,0.000000,,2013-10-15 06:52:00,
2013-10-15 01:01:00,32.0,23.0,-100.00,SW,234,2.0,7.0,69,0.00,,,-99.99,0.000000,,2013-10-15 07:01:00,
2013-10-15 01:42:00,31.0,23.0,-100.00,WSW,244,1.0,5.0,72,0.00,,,0.00,0.000000,,2013-10-15 07:42:00,
2013-10-15 01:52:00,31.0,23.0,-100.00,WSW,244,1.0,5.0,72,0.00,,,0.00,0.000000,,2013-10-15 07:52:00,
2013-10-15 02:02:00,31.0,23.0,-100.00,WSW,244,1.0,5.0,72,0.00,,,0.00,0.000000,,2013-10-15 08:02:00,
2013-10-15 02:42:00,30.0,23.0,-100.00,WSW,238,5.0,7.0,76,0.00,,,0.00,0.000000,,2013-10-15 08:42:00,
2013-10-15 02:52:00,30.0,23.0,-100.00,WSW,238,5.0,7.0,76,0.00,,,0.00,0.000000,,2013-10-15 08:52:00,
2013-10-15 03:02:00,30.0,23.0,-100.00,WSW,238,5.0,7.0,76,0.00,,,0.00,0.000000,,2013-10-15 09:02:00,
2013-10-15 03:03:00,29.0,24.0,-100.00,SW,233,6.0,8.0,80,0.00,,,0.00,0.000000,,2013-10-15 09:03:00,
2013-10-15 03:43:00,29.0,24.0,-100.00,SW,233,6.0,8.0,80,0.00,,,0.00,0.000000,,2013-10-15 09:43:00,
2013-10-15 03:53:00,29.0,24.0,-100.00,SW,233,6.0,8.0,80,0.00,,,0.00,0.000000,,2013-10-15 09:53:00,
2013-10-15 04:43:00,29.0,25.0,-100.00,WSW,245,4.0,8.0,83,0.00,,,0.00,0.000000,,2013-10-15 10:43:00,
2013-10-15 04:53:00,29.0,25.0,-100.00,WSW,245,4.0,8.0,83,0.00,,,0.00,0.000000,,2013-10-15 10:53:00,
2013-10-15 05:02:00,29.0,25.0,-100.00,WSW,245,4.0,8.0,83,0.00,,,0.00,0.000000,,2013-10-15 11:02:00,
2013-10-15 05:42:00,30.0,25.0,-100.00,WSW,240,4.0,9.0,81,0.00,,,0.00,0.000000,,2013-10-15 11:42:00,
2013-10-15 05:52:00,30.0,25.0,-100.00,WSW,240,4.0,9.0,81,0.00,,,0.00,0.000000,,2013-10-15 11:52:00,
2013-10-15 06:01:00,30.0,25.0,-100.00,WSW,240,4.0,9.0,81,0.00,,,0.00,0.000000,,2013-10-15 12:01:00,
2013-10-15 06:42:00,28.0,23.0,-100.00,SW,235,1.0,7.0,82,0.00,,,0.00,0.000000,,2013-10-15 12:42:00,
2013-10-15 06:52:00,28.0,23.0,-100.00,SW,235,1.0,7.0,82,0.00,,,0.00,0.000000,,2013-10-15 12:52:00,
2013-10-15 07:01:00,28.0,23.0,-100.00,SW,235,1.0,7.0,82,0.00,,,0.00,0.000000,,2013-10-15 13:01:00,
2013-10-15 07:42:00,27.0,22.0,-100.00,WSW,243,3.0,7.0,80,0.00,,,0.00,0.000000,,2013-10-15 13:42:00,
2013-10-15 07:52:00,27.0,22.0,-100.00,WSW,243,3.0,7.0,80,0.00,,,0.00,0.000000,,2013-10-15 13:52:00,
2013-10-15 08:02:00,27.0,22.0,-100.00,WSW,243,3.0,7.0,80,0.00,,,0.00,0.000000,,2013-10-15 14:02:00,
2013-10-15 08:42:00,27.0,23.0,-100.00,WSW,240,3.0,5.0,84,0.00,,,0.00,2.000000,,2013-10-15 14:42:00,
2013-10-15 08:52:00,27.0,23.0,-100.00,WSW,240,3.0,5.0,84,0.00,,,0.00,2.000000,,2013-10-15 14:52:00,
2013-10-15 09:01:00,27.0,23.0,-100.00,WSW,240,3.0,5.0,84,0.00,,,0.00,2.000000,,2013-10-15 15:01:00,
2013-10-15 09:03:00,33.0,25.0,-100.00,SSW,194,0.0,7.0,72,0.00,,,0.00,121.000000,,2013-10-15 15:03:00,
2013-10-15 09:44:00,33.0,25.0,-100.00,SSW,194,0.0,7.0,72,0.00,,,0.00,121.000000,,2013-10-15 15:44:00,
2013-10-15 09:53:00,33.0,25.0,-100.00,SSW,194,0.0,7.0,72,0.00,,,0.00,121.000000,,2013-10-15 15:53:00,
2013-10-15 10:53:00,38.0,28.0,-100.00,ESE,109,5.0,7.0,66,0.00,,,0.00,302.000000,,2013-10-15 16:53:00,
2013-10-15 11:02:00,38.0,28.0,-100.00,ESE,109,5.0,7.0,66,0.00,,,0.00,302.000000,,2013-10-15 17:02:00,
2013-10-15 11:42:00,40.0,26.0,-100.00,ESE,113,8.0,10.0,58,0.00,,,0.00,478.000000,,2013-10-15 17:42:00,
2013-10-15 11:53:00,40.0,26.0,-100.00,ESE,113,8.0,10.0,58,0.00,,,0.00,478.000000,,2013-10-15 17:53:00,
2013-10-15 12:02:00,40.0,26.0,-100.00,ESE,113,8.0,10.0,58,0.00,,,0.00,478.000000,,2013-10-15 18:02:00,
2013-10-15 12:52:00,46.0,26.0,-100.00,SSW,206,9.0,12.0,46,0.00,,,0.00,616.000000,,2013-10-15 18:52:00,
2013-10-15 13:01:00,46.0,26.0,-100.00,SSW,206,9.0,12.0,46,0.00,,,0.00,616.000000,,2013-10-15 19:01:00,
2013-10-15 13:22:00,45.0,25.0,-100.00,SSE,160,12.0,15.0,46,0.00,,,-99.99,698.000000,,2013-10-15 19:22:00,
2013-10-15 13:32:00,45.0,25.0,-100.00,SSE,160,12.0,15.0,46,0.00,,,-99.99,698.000000,,2013-10-15 19:32:00,
2013-10-15 13:42:00,45.0,25.0,-100.00,SSE,160,12.0,15.0,46,0.00,,,-99.99,698.000000,,2013-10-15 19:42:00,
2013-10-15 13:52:00,45.0,25.0,-100.00,SSE,160,12.0,15.0,46,0.00,,,-99.99,698.000000,,2013-10-15 19:52:00,
2013-10-15 14:02:00,45.0,25.0,-100.00,SSE,160,12.0,15.0,46,0.00,,,-99.99,698.000000,,2013-10-15 20:02:00,
2013-10-15 14:42:00,48.0,26.0,-100.00,SSE,158,10.0,19.0,42,0.00,,,0.00,715.000000,,2013-10-15 20:42:00,
2013-10-15 14:52:00,48.0,26.0,-100.00,SSE,158,10.0,19.0,42,0.00,,,0.00,715.000000,,2013-10-15 20:52:00,
2013-10-15 15:02:00,48.0,26.0,-100.00,SSE,158,10.0,19.0,42,0.00,,,0.00,715.000000,,2013-10-15 21:02:00,
2013-10-15 15:03:00,50.0,27.0,-100.00,SSE,168,10.0,16.0,40,0.00,,,0.00,669.000000,,2013-10-15 21:03:00,
2013-10-15 15:22:00,50.0,27.0,-100.00,SSE,168,10.0,16.0,40,0.00,,,0.00,669.000000,,2013-10-15 21:22:00,
2013-10-15 15:34:00,50.0,27.0,-100.00,SSE,168,10.0,16.0,40,0.00,,,0.00,669.000000,,2013-10-15 21:34:00,
2013-10-15 15:44:00,50.0,27.0,-100.00,SSE,168,10.0,16.0,40,0.00,,,0.00,669.000000,,2013-10-15 21:44:00,
2013-10-15 15:54:00,50.0,27.0,-100.00,SSE,168,10.0,16.0,40,0.00,,,0.00,669.000000,,2013-10-15 21:54:00,
2013-10-15 16:03:00,52.0,27.0,-100.00,SSE,166,10.0,20.0,37,0.00,,,0.00,562.000000,,2013-10-15 22:03:00,
2013-10-15 16:43:00,52.0,27.0,-100.00,SSE,166,10.0,20.0,37,0.00,,,0.00,562.000000,,2013-10-15 22:43:00,
2013-10-15 16:53:00,52.0,27.0,-100.00,SSE,166,10.0,20.0,37,0.00,,,0.00,562.000000,,2013-10-15 22:53:00,
2013-10-15 17:43:00,51.0,28.0,-100.00,ESE,122,10.0,19.0,40,0.00,,,0.00,402.000000,,2013-10-15 23:43:00,
2013-10-15 17:52:00,51.0,28.0,-100.00,ESE,122,10.0,19.0,40,0.00,,,0.00,402.000000,,2013-10-15 23:52:00,
2013-10-15 18:01:00,51.0,28.0,-100.00,ESE,122,10.0,19.0,40,0.00,,,0.00,402.000000,,2013-10-16 00:01:00,
2013-10-15 18:42:00,48.0,25.0,-100.00,ESE,122,6.0,17.0,41,0.00,,,0.00,211.000000,,2013-10-16 00:42:00,
2013-10-15 18:52:00,48.0,25.0,-100.00,ESE,122,6.0,17.0,41,0.00,,,0.00,211.000000,,2013-10-16 00:52:00,
2013-10-15 19:02:00,48.0,25.0,-100.00,ESE,122,6.0,17.0,41,0.00,,,0.00,211.000000,,2013-10-16 01:02:00,
2013-10-15 19:42:00,42.0,24.0,-100.00,SSW,198,4.0,16.0,48,0.00,,,0.00,15.000000,,2013-10-16 01:42:00,
2013-10-15 19:52:00,42.0,24.0,-100.00,SSW,198,4.0,16.0,48,0.00,,,0.00,15.000000,,2013-10-16 01:52:00,
2013-10-15 20:02:00,42.0,24.0,-100.00,SSW,198,4.0,16.0,48,0.00,,,0.00,15.000000,,2013-10-16 02:02:00,
2013-10-15 20:42:00,36.0,23.0,-100.00,WSW,256,3.0,11.0,59,0.00,,,0.00,0.000000,,2013-10-16 02:42:00,
2013-10-15 20:52:00,36.0,23.0,-100.00,WSW,256,3.0,11.0,59,0.00,,,0.00,0.000000,,2013-10-16 02:52:00,
2013-10-15 21:02:00,36.0,23.0,-100.00,WSW,256,3.0,11.0,59,0.00,,,0.00,0.000000,,2013-10-16 03:02:00,
2013-10-15 21:03:00,34.0,22.0,-100.00,SW,235,5.0,7.0,61,0.00,,,0.00,0.000000,,2013-10-16 03:03:00,
2013-10-15 21:45:00,34.0,22.0,-100.00,SW,235,5.0,7.0,61,0.00,,,0.00,0.000000,,2013-10-16 03:45:00,
2013-10-15 21:55:00,34.0,22.0,-100.00,SW,235,5.0,7.0,61,0.00,,,0.00,0.000000,,2013-10-16 03:55:00,
2013-10-15 22:03:00,37.0,22.0,-100.00,WNW,285,2.0,9.0,54,0.00,,,0.00,0.000000,,2013-10-16 04:03:00,
2013-10-15 22:24:00,37.0,22.0,-100.00,WNW,285,2.0,9.0,54,0.00,,,0.00,0.000000,,2013-10-16 04:24:00,
2013-10-15 22:34:00,37.0,22.0,-100.00,WNW,285,2.0,9.0,54,0.00,,,0.00,0.000000,,2013-10-16 04:34:00,
2013-10-15 22:43:00,37.0,22.0,-100.00,WNW,285,2.0,9.0,54,0.00,,,0.00,0.000000,,2013-10-16 04:43:00,
2013-10-15 22:54:00,37.0,22.0,-100.00,WNW,285,2.0,9.0,54,0.00,,,0.00,0.000000,,2013-10-16 04:54:00,
2013-10-15 23:43:00,34.0,18.0,-100.00,West,280,4.0,8.0,52,0.00,,,0.00,0.000000,,2013-10-16 05:43:00,
2013-10-15 23:53:00,34.0,18.0,-100.00,West,280,4.0,8.0,52,0.00,,,0.00,0.000000,,2013-10-16 05:53:00,